PWSweather.com
Personal Weather Stations
Station Observations
719732
Ponferrada, PonferradaES 24411

PonferradaPonferradaES 24411

Lat: 42.5728, Lon: -6.6425

Elevation: 1676

Station Type: PCE-FWS 20 con garita Ambient Weather SRS100LX

www.meteo.spyfly.es

High Low Average
Temperature 67.3°F19.6°C 26.6°F-3.0°C 44.7°F7.1°C
Dew Point 38.2°F3.4°C 22.4°F-5.3°C 31.2°F-0.4°C
Winds 8.3 mph 13.4 kmh Calm Calm 2.0 mph SE3.2 kmh SE
Wind Gusts 13.0 mph20.9 kmh -- 4.0 mph6.4 kmh
Humidity 90% 30% 63%
Pressure 30.35 in1027.8 mb 30.20 in1022.7 mb -
Precipitation 0.00 in0.0 mm - -
Hour Temp Dew Point Humidity Winds Wind Gusts Pressure Precip Precip Rate Daily Precip Total
12:00 AM 35.2°F1.8°C 28.5°F-1.9°C 76% Calm Calm 2.2 mph3.5 kmh 30.34 in1027.4 mb 0.00 in0.0 mm 0.00 in0.0 mm 0.00 in0.0 mm
12:05 AM 35.1°F1.7°C 28.3°F-2.1°C 76% Calm Calm 2.2 mph3.5 kmh 30.34 in1027.4 mb 0.00 in0.0 mm 0.00 in0.0 mm 0.00 in0.0 mm
12:10 AM 34.9°F1.6°C 28.1°F-2.2°C 76% Calm Calm 2.2 mph3.5 kmh 30.34 in1027.4 mb 0.00 in0.0 mm 0.00 in0.0 mm 0.00 in0.0 mm
12:15 AM 34.7°F1.5°C 27.9°F-2.3°C 76% Calm Calm 1.6 mph2.6 kmh 30.34 in1027.4 mb 0.00 in0.0 mm 0.00 in0.0 mm 0.00 in0.0 mm
12:20 AM 34.3°F1.3°C 27.6°F-2.4°C 76% Calm Calm 1.6 mph2.6 kmh 30.34 in1027.4 mb 0.00 in0.0 mm 0.00 in0.0 mm 0.00 in0.0 mm
12:25 AM 34.2°F1.2°C 27.7°F-2.4°C 77% Calm Calm 0.7 mph1.1 kmh 30.35 in1027.8 mb 0.00 in0.0 mm 0.00 in0.0 mm 0.00 in0.0 mm
12:30 AM 34.0°F1.1°C 27.5°F-2.5°C 77% Calm Calm 1.6 mph2.6 kmh 30.34 in1027.4 mb 0.00 in0.0 mm 0.00 in0.0 mm 0.00 in0.0 mm
12:35 AM 33.8°F1.0°C 27.7°F-2.4°C 78% 0.7 mph E1.1 kmh E 2.2 mph3.5 kmh 30.34 in1027.4 mb 0.00 in0.0 mm 0.00 in0.0 mm 0.00 in0.0 mm
12:40 AM 33.6°F0.9°C 27.8°F-2.3°C 79% 1.6 mph E2.6 kmh E 3.1 mph5.0 kmh 30.34 in1027.4 mb 0.00 in0.0 mm 0.00 in0.0 mm 0.00 in0.0 mm
12:45 AM 33.6°F0.9°C 27.8°F-2.3°C 79% 1.6 mph E2.6 kmh E 3.1 mph5.0 kmh 30.34 in1027.4 mb 0.00 in0.0 mm 0.00 in0.0 mm 0.00 in0.0 mm
12:50 AM 33.6°F0.9°C 28.1°F-2.2°C 80% 0.7 mph E1.1 kmh E 3.1 mph5.0 kmh 30.34 in1027.4 mb 0.00 in0.0 mm 0.00 in0.0 mm 0.00 in0.0 mm
12:55 AM 33.8°F1.0°C 28.0°F-2.2°C 79% 1.6 mph E2.6 kmh E 2.2 mph3.5 kmh 30.34 in1027.4 mb 0.00 in0.0 mm 0.00 in0.0 mm 0.00 in0.0 mm
01:00 AM 33.8°F1.0°C 28.0°F-2.2°C 79% 0.7 mph E1.1 kmh E 3.1 mph5.0 kmh 30.34 in1027.4 mb 0.00 in0.0 mm 0.00 in0.0 mm 0.00 in0.0 mm
01:05 AM 33.8°F1.0°C 28.0°F-2.2°C 79% 1.6 mph E2.6 kmh E 3.1 mph5.0 kmh 30.34 in1027.4 mb 0.00 in0.0 mm 0.00 in0.0 mm 0.00 in0.0 mm
01:10 AM 33.6°F0.9°C 28.1°F-2.2°C 80% 1.6 mph ENE2.6 kmh ENE 2.2 mph3.5 kmh 30.35 in1027.8 mb 0.00 in0.0 mm 0.00 in0.0 mm 0.00 in0.0 mm
01:15 AM 33.6°F0.9°C 28.1°F-2.2°C 80% 1.6 mph E2.6 kmh E 2.2 mph3.5 kmh 30.34 in1027.4 mb 0.00 in0.0 mm 0.00 in0.0 mm 0.00 in0.0 mm
01:20 AM 33.4°F0.8°C 28.0°F-2.2°C 80% 0.7 mph E1.1 kmh E 2.2 mph3.5 kmh 30.34 in1027.4 mb 0.00 in0.0 mm 0.00 in0.0 mm 0.00 in0.0 mm
01:25 AM 33.4°F0.8°C 28.0°F-2.2°C 80% 1.6 mph E2.6 kmh E 2.2 mph3.5 kmh 30.34 in1027.4 mb 0.00 in0.0 mm 0.00 in0.0 mm 0.00 in0.0 mm
01:30 AM 33.3°F0.7°C 27.8°F-2.3°C 80% 0.7 mph E1.1 kmh E 2.2 mph3.5 kmh 30.35 in1027.8 mb 0.00 in0.0 mm 0.00 in0.0 mm 0.00 in0.0 mm
01:35 AM 33.1°F0.6°C 27.6°F-2.4°C 80% 0.7 mph E1.1 kmh E 2.2 mph3.5 kmh 30.34 in1027.4 mb 0.00 in0.0 mm 0.00 in0.0 mm 0.00 in0.0 mm
01:40 AM 32.9°F0.5°C 27.4°F-2.6°C 80% 0.7 mph E1.1 kmh E 1.6 mph2.6 kmh 30.35 in1027.8 mb 0.00 in0.0 mm 0.00 in0.0 mm 0.00 in0.0 mm
01:45 AM 32.9°F0.5°C 27.4°F-2.6°C 80% 0.7 mph E1.1 kmh E 1.6 mph2.6 kmh 30.35 in1027.8 mb 0.00 in0.0 mm 0.00 in0.0 mm 0.00 in0.0 mm
01:50 AM 32.7°F0.4°C 27.3°F-2.6°C 80% 0.7 mph ENE1.1 kmh ENE 2.2 mph3.5 kmh 30.35 in1027.8 mb 0.00 in0.0 mm 0.00 in0.0 mm 0.00 in0.0 mm
01:55 AM 32.7°F0.4°C 27.3°F-2.6°C 80% 1.6 mph E2.6 kmh E 2.2 mph3.5 kmh 30.35 in1027.8 mb 0.00 in0.0 mm 0.00 in0.0 mm 0.00 in0.0 mm
02:00 AM 32.5°F0.3°C 27.4°F-2.6°C 81% 0.7 mph E1.1 kmh E 2.2 mph3.5 kmh 30.35 in1027.8 mb 0.00 in0.0 mm 0.00 in0.0 mm 0.00 in0.0 mm
02:05 AM 32.5°F0.3°C 27.4°F-2.6°C 81% 0.7 mph E1.1 kmh E 2.2 mph3.5 kmh 30.35 in1027.8 mb 0.00 in0.0 mm 0.00 in0.0 mm 0.00 in0.0 mm
02:10 AM 32.4°F0.2°C 27.2°F-2.7°C 81% 0.7 mph E1.1 kmh E 2.2 mph3.5 kmh 30.35 in1027.8 mb 0.00 in0.0 mm 0.00 in0.0 mm 0.00 in0.0 mm
02:15 AM 32.2°F0.1°C 27.0°F-2.8°C 81% 0.7 mph E1.1 kmh E 2.2 mph3.5 kmh 30.35 in1027.8 mb 0.00 in0.0 mm 0.00 in0.0 mm 0.00 in0.0 mm
02:20 AM 32.0°F0.0°C 26.9°F-2.8°C 81% 0.7 mph E1.1 kmh E 2.2 mph3.5 kmh 30.35 in1027.8 mb 0.00 in0.0 mm 0.00 in0.0 mm 0.00 in0.0 mm
02:25 AM 31.8°F-0.1°C 27.0°F-2.8°C 82% Calm Calm 1.6 mph2.6 kmh 30.35 in1027.8 mb 0.00 in0.0 mm 0.00 in0.0 mm 0.00 in0.0 mm
02:30 AM 31.6°F-0.2°C 27.1°F-2.7°C 83% Calm Calm 1.6 mph2.6 kmh 30.35 in1027.8 mb 0.00 in0.0 mm 0.00 in0.0 mm 0.00 in0.0 mm
02:35 AM 31.5°F-0.3°C 26.9°F-2.8°C 83% Calm Calm 2.2 mph3.5 kmh 30.35 in1027.8 mb 0.00 in0.0 mm 0.00 in0.0 mm 0.00 in0.0 mm
02:40 AM 31.3°F-0.4°C 26.7°F-2.9°C 83% 0.7 mph NE1.1 kmh NE 2.2 mph3.5 kmh 30.35 in1027.8 mb 0.00 in0.0 mm 0.00 in0.0 mm 0.00 in0.0 mm
02:45 AM 31.3°F-0.4°C 26.7°F-2.9°C 83% 1.6 mph ENE2.6 kmh ENE 2.2 mph3.5 kmh 30.34 in1027.4 mb 0.00 in0.0 mm 0.00 in0.0 mm 0.00 in0.0 mm
02:50 AM 31.3°F-0.4°C 27.0°F-2.8°C 84% 0.7 mph E1.1 kmh E 2.2 mph3.5 kmh 30.34 in1027.4 mb 0.00 in0.0 mm 0.00 in0.0 mm 0.00 in0.0 mm
02:55 AM 31.1°F-0.5°C 26.9°F-2.8°C 84% 0.7 mph E1.1 kmh E 2.2 mph3.5 kmh 30.34 in1027.4 mb 0.00 in0.0 mm 0.00 in0.0 mm 0.00 in0.0 mm
03:00 AM 31.1°F-0.5°C 26.9°F-2.8°C 84% 1.6 mph E2.6 kmh E 2.2 mph3.5 kmh 30.34 in1027.4 mb 0.00 in0.0 mm 0.00 in0.0 mm 0.00 in0.0 mm
03:05 AM 31.1°F-0.5°C 26.9°F-2.8°C 84% 0.7 mph E1.1 kmh E 2.2 mph3.5 kmh 30.34 in1027.4 mb 0.00 in0.0 mm 0.00 in0.0 mm 0.00 in0.0 mm
03:10 AM 31.1°F-0.5°C 26.9°F-2.8°C 84% 0.7 mph ENE1.1 kmh ENE 2.2 mph3.5 kmh 30.34 in1027.4 mb 0.00 in0.0 mm 0.00 in0.0 mm 0.00 in0.0 mm
03:15 AM 31.1°F-0.5°C 26.9°F-2.8°C 84% 0.7 mph E1.1 kmh E 1.6 mph2.6 kmh 30.34 in1027.4 mb 0.00 in0.0 mm 0.00 in0.0 mm 0.00 in0.0 mm
03:20 AM 30.9°F-0.6°C 26.7°F-2.9°C 84% 0.7 mph ESE1.1 kmh ESE 2.2 mph3.5 kmh 30.34 in1027.4 mb 0.00 in0.0 mm 0.00 in0.0 mm 0.00 in0.0 mm
03:25 AM 30.9°F-0.6°C 26.7°F-2.9°C 84% 2.2 mph E3.5 kmh E 3.8 mph6.1 kmh 30.34 in1027.4 mb 0.00 in0.0 mm 0.00 in0.0 mm 0.00 in0.0 mm
03:30 AM 30.9°F-0.6°C 26.7°F-2.9°C 84% 1.6 mph E2.6 kmh E 3.8 mph6.1 kmh 30.34 in1027.4 mb 0.00 in0.0 mm 0.00 in0.0 mm 0.00 in0.0 mm
03:35 AM 30.9°F-0.6°C 26.7°F-2.9°C 84% 0.7 mph E1.1 kmh E 3.1 mph5.0 kmh 30.34 in1027.4 mb 0.00 in0.0 mm 0.00 in0.0 mm 0.00 in0.0 mm
03:40 AM 30.9°F-0.6°C 26.7°F-2.9°C 84% 0.7 mph ESE1.1 kmh ESE 3.1 mph5.0 kmh 30.34 in1027.4 mb 0.00 in0.0 mm 0.00 in0.0 mm 0.00 in0.0 mm
03:45 AM 30.9°F-0.6°C 26.7°F-2.9°C 84% 0.7 mph ESE1.1 kmh ESE 2.2 mph3.5 kmh 30.34 in1027.4 mb 0.00 in0.0 mm 0.00 in0.0 mm 0.00 in0.0 mm
03:50 AM 30.9°F-0.6°C 26.7°F-2.9°C 84% 0.7 mph ESE1.1 kmh ESE 2.2 mph3.5 kmh 30.34 in1027.4 mb 0.00 in0.0 mm 0.00 in0.0 mm 0.00 in0.0 mm
03:55 AM 30.9°F-0.6°C 26.7°F-2.9°C 84% 0.7 mph E1.1 kmh E 2.2 mph3.5 kmh 30.33 in1027.1 mb 0.00 in0.0 mm 0.00 in0.0 mm 0.00 in0.0 mm
04:00 AM 30.7°F-0.7°C 26.5°F-3.1°C 84% 0.7 mph E1.1 kmh E 2.2 mph3.5 kmh 30.33 in1027.1 mb 0.00 in0.0 mm 0.00 in0.0 mm 0.00 in0.0 mm
04:05 AM 30.7°F-0.7°C 26.5°F-3.1°C 84% 1.6 mph E2.6 kmh E 2.2 mph3.5 kmh 30.33 in1027.1 mb 0.00 in0.0 mm 0.00 in0.0 mm 0.00 in0.0 mm
04:10 AM 30.4°F-0.9°C 26.1°F-3.3°C 84% Calm Calm 2.2 mph3.5 kmh 30.33 in1027.1 mb 0.00 in0.0 mm 0.00 in0.0 mm 0.00 in0.0 mm
04:15 AM 30.2°F-1.0°C 26.0°F-3.3°C 84% Calm Calm 2.2 mph3.5 kmh 30.33 in1027.1 mb 0.00 in0.0 mm 0.00 in0.0 mm 0.00 in0.0 mm
04:20 AM 30.0°F-1.1°C 26.1°F-3.3°C 85% Calm Calm 0.7 mph1.1 kmh 30.33 in1027.1 mb 0.00 in0.0 mm 0.00 in0.0 mm 0.00 in0.0 mm
04:25 AM 29.7°F-1.3°C 25.7°F-3.5°C 85% 0.7 mph E1.1 kmh E 1.6 mph2.6 kmh 30.33 in1027.1 mb 0.00 in0.0 mm 0.00 in0.0 mm 0.00 in0.0 mm
04:30 AM 29.7°F-1.3°C 25.7°F-3.5°C 85% 0.7 mph E1.1 kmh E 2.2 mph3.5 kmh 30.33 in1027.1 mb 0.00 in0.0 mm 0.00 in0.0 mm 0.00 in0.0 mm
04:35 AM 29.7°F-1.3°C 26.0°F-3.3°C 86% 0.7 mph ESE1.1 kmh ESE 2.2 mph3.5 kmh 30.32 in1026.8 mb 0.00 in0.0 mm 0.00 in0.0 mm 0.00 in0.0 mm
04:40 AM 29.7°F-1.3°C 26.0°F-3.3°C 86% 0.7 mph SE1.1 kmh SE 2.2 mph3.5 kmh 30.33 in1027.1 mb 0.00 in0.0 mm 0.00 in0.0 mm 0.00 in0.0 mm
04:45 AM 29.7°F-1.3°C 26.0°F-3.3°C 86% Calm Calm 2.2 mph3.5 kmh 30.33 in1027.1 mb 0.00 in0.0 mm 0.00 in0.0 mm 0.00 in0.0 mm
04:50 AM 29.5°F-1.4°C 25.8°F-3.4°C 86% Calm Calm 2.2 mph3.5 kmh 30.33 in1027.1 mb 0.00 in0.0 mm 0.00 in0.0 mm 0.00 in0.0 mm
04:55 AM 29.3°F-1.5°C 25.7°F-3.5°C 86% 0.7 mph NW1.1 kmh NW 1.6 mph2.6 kmh 30.33 in1027.1 mb 0.00 in0.0 mm 0.00 in0.0 mm 0.00 in0.0 mm
05:00 AM 29.1°F-1.6°C 25.5°F-3.6°C 86% 0.7 mph E1.1 kmh E 2.2 mph3.5 kmh 30.33 in1027.1 mb 0.00 in0.0 mm 0.00 in0.0 mm 0.00 in0.0 mm
05:05 AM 29.3°F-1.5°C 25.7°F-3.5°C 86% 1.6 mph ESE2.6 kmh ESE 2.2 mph3.5 kmh 30.33 in1027.1 mb 0.00 in0.0 mm 0.00 in0.0 mm 0.00 in0.0 mm
05:10 AM 29.3°F-1.5°C 25.7°F-3.5°C 86% 0.7 mph E1.1 kmh E 2.2 mph3.5 kmh 30.33 in1027.1 mb 0.00 in0.0 mm 0.00 in0.0 mm 0.00 in0.0 mm
05:15 AM 29.3°F-1.5°C 25.7°F-3.5°C 86% 0.7 mph E1.1 kmh E 2.2 mph3.5 kmh 30.33 in1027.1 mb 0.00 in0.0 mm 0.00 in0.0 mm 0.00 in0.0 mm
05:20 AM 29.3°F-1.5°C 25.7°F-3.5°C 86% Calm Calm 2.2 mph3.5 kmh 30.33 in1027.1 mb 0.00 in0.0 mm 0.00 in0.0 mm 0.00 in0.0 mm
05:25 AM 29.1°F-1.6°C 25.5°F-3.6°C 86% 1.6 mph E2.6 kmh E 2.2 mph3.5 kmh 30.33 in1027.1 mb 0.00 in0.0 mm 0.00 in0.0 mm 0.00 in0.0 mm
05:30 AM 29.1°F-1.6°C 25.5°F-3.6°C 86% Calm Calm 2.2 mph3.5 kmh 30.33 in1027.1 mb 0.00 in0.0 mm 0.00 in0.0 mm 0.00 in0.0 mm
05:35 AM 28.9°F-1.7°C 25.3°F-3.7°C 86% 0.7 mph NE1.1 kmh NE 2.2 mph3.5 kmh 30.33 in1027.1 mb 0.00 in0.0 mm 0.00 in0.0 mm 0.00 in0.0 mm
05:40 AM 28.8°F-1.8°C 25.1°F-3.8°C 86% 0.7 mph NNE1.1 kmh NNE 1.6 mph2.6 kmh 30.33 in1027.1 mb 0.00 in0.0 mm 0.00 in0.0 mm 0.00 in0.0 mm
05:45 AM 28.8°F-1.8°C 25.1°F-3.8°C 86% 0.7 mph NE1.1 kmh NE 1.6 mph2.6 kmh 30.33 in1027.1 mb 0.00 in0.0 mm 0.00 in0.0 mm 0.00 in0.0 mm
05:50 AM 28.6°F-1.9°C 24.9°F-3.9°C 86% 1.6 mph ENE2.6 kmh ENE 2.2 mph3.5 kmh 30.33 in1027.1 mb 0.00 in0.0 mm 0.00 in0.0 mm 0.00 in0.0 mm
05:55 AM 28.6°F-1.9°C 24.9°F-3.9°C 86% 0.7 mph ENE1.1 kmh ENE 2.2 mph3.5 kmh 30.33 in1027.1 mb 0.00 in0.0 mm 0.00 in0.0 mm 0.00 in0.0 mm
06:00 AM 28.4°F-2.0°C 25.0°F-3.9°C 87% Calm Calm 2.2 mph3.5 kmh 30.34 in1027.4 mb 0.00 in0.0 mm 0.00 in0.0 mm 0.00 in0.0 mm
06:05 AM 28.4°F-2.0°C 25.0°F-3.9°C 87% Calm Calm 1.6 mph2.6 kmh 30.33 in1027.1 mb 0.00 in0.0 mm 0.00 in0.0 mm 0.00 in0.0 mm
06:10 AM 28.4°F-2.0°C 25.0°F-3.9°C 87% 0.7 mph NE1.1 kmh NE 1.6 mph2.6 kmh 30.33 in1027.1 mb 0.00 in0.0 mm 0.00 in0.0 mm 0.00 in0.0 mm
06:15 AM 28.2°F-2.1°C 23.7°F-4.6°C 83% Calm Calm 1.6 mph2.6 kmh 30.33 in1027.1 mb 0.00 in0.0 mm 0.00 in0.0 mm 0.00 in0.0 mm
06:20 AM 28.0°F-2.2°C 23.6°F-4.7°C 83% Calm Calm 1.6 mph2.6 kmh 30.34 in1027.4 mb 0.00 in0.0 mm 0.00 in0.0 mm 0.00 in0.0 mm
06:25 AM 28.0°F-2.2°C 23.6°F-4.7°C 83% 0.7 mph NE1.1 kmh NE 1.6 mph2.6 kmh 30.34 in1027.4 mb 0.00 in0.0 mm 0.00 in0.0 mm 0.00 in0.0 mm
06:30 AM 28.0°F-2.2°C 23.6°F-4.7°C 83% Calm Calm 1.6 mph2.6 kmh 30.33 in1027.1 mb 0.00 in0.0 mm 0.00 in0.0 mm 0.00 in0.0 mm
06:35 AM 28.0°F-2.2°C 23.6°F-4.7°C 83% Calm Calm 1.6 mph2.6 kmh 30.34 in1027.4 mb 0.00 in0.0 mm 0.00 in0.0 mm 0.00 in0.0 mm
06:40 AM 28.0°F-2.2°C 23.6°F-4.7°C 83% 0.7 mph E1.1 kmh E 1.6 mph2.6 kmh 30.34 in1027.4 mb 0.00 in0.0 mm 0.00 in0.0 mm 0.00 in0.0 mm
06:45 AM 28.0°F-2.2°C 23.6°F-4.7°C 83% Calm Calm 1.6 mph2.6 kmh 30.34 in1027.4 mb 0.00 in0.0 mm 0.00 in0.0 mm 0.00 in0.0 mm
06:50 AM 28.0°F-2.2°C 23.6°F-4.7°C 83% 0.7 mph SE1.1 kmh SE 2.2 mph3.5 kmh 30.34 in1027.4 mb 0.00 in0.0 mm 0.00 in0.0 mm 0.00 in0.0 mm
06:55 AM 28.2°F-2.1°C 24.0°F-4.4°C 84% Calm Calm 2.2 mph3.5 kmh 30.34 in1027.4 mb 0.00 in0.0 mm 0.00 in0.0 mm 0.00 in0.0 mm
07:00 AM 28.0°F-2.2°C 23.9°F-4.5°C 84% Calm Calm 1.6 mph2.6 kmh 30.34 in1027.4 mb 0.00 in0.0 mm 0.00 in0.0 mm 0.00 in0.0 mm
07:05 AM 28.0°F-2.2°C 23.9°F-4.5°C 84% Calm Calm 1.6 mph2.6 kmh 30.34 in1027.4 mb 0.00 in0.0 mm 0.00 in0.0 mm 0.00 in0.0 mm
07:10 AM 27.7°F-2.4°C 23.2°F-4.9°C 83% Calm Calm 1.6 mph2.6 kmh 30.34 in1027.4 mb 0.00 in0.0 mm 0.00 in0.0 mm 0.00 in0.0 mm
07:15 AM 27.5°F-2.5°C 23.0°F-5.0°C 83% 0.7 mph W1.1 kmh W 1.6 mph2.6 kmh 30.34 in1027.4 mb 0.00 in0.0 mm 0.00 in0.0 mm 0.00 in0.0 mm
07:20 AM 27.5°F-2.5°C 23.0°F-5.0°C 83% Calm Calm 1.6 mph2.6 kmh 30.34 in1027.4 mb 0.00 in0.0 mm 0.00 in0.0 mm 0.00 in0.0 mm
07:25 AM 27.5°F-2.5°C 23.0°F-5.0°C 83% 0.7 mph SSW1.1 kmh SSW 2.2 mph3.5 kmh 30.34 in1027.4 mb 0.00 in0.0 mm 0.00 in0.0 mm 0.00 in0.0 mm
07:30 AM 27.5°F-2.5°C 23.3°F-4.8°C 84% Calm Calm 2.2 mph3.5 kmh 30.34 in1027.4 mb 0.00 in0.0 mm 0.00 in0.0 mm 0.00 in0.0 mm
07:35 AM 27.3°F-2.6°C 23.2°F-4.9°C 84% 1.6 mph NNE2.6 kmh NNE 3.1 mph5.0 kmh 30.34 in1027.4 mb 0.00 in0.0 mm 0.00 in0.0 mm 0.00 in0.0 mm
07:40 AM 27.3°F-2.6°C 23.2°F-4.9°C 84% Calm Calm 3.1 mph5.0 kmh 30.34 in1027.4 mb 0.00 in0.0 mm 0.00 in0.0 mm 0.00 in0.0 mm
07:45 AM 27.1°F-2.7°C 23.0°F-5.0°C 84% 1.6 mph ENE2.6 kmh ENE 3.1 mph5.0 kmh 30.34 in1027.4 mb 0.00 in0.0 mm 0.00 in0.0 mm 0.00 in0.0 mm
07:50 AM 27.3°F-2.6°C 23.2°F-4.9°C 84% Calm Calm 2.2 mph3.5 kmh 30.34 in1027.4 mb 0.00 in0.0 mm 0.00 in0.0 mm 0.00 in0.0 mm
07:55 AM 27.3°F-2.6°C 23.2°F-4.9°C 84% 0.7 mph E1.1 kmh E 2.2 mph3.5 kmh 30.34 in1027.4 mb 0.00 in0.0 mm 0.00 in0.0 mm 0.00 in0.0 mm
08:00 AM 27.3°F-2.6°C 23.2°F-4.9°C 84% 0.7 mph ENE1.1 kmh ENE 2.2 mph3.5 kmh 30.34 in1027.4 mb 0.00 in0.0 mm 0.00 in0.0 mm 0.00 in0.0 mm
08:05 AM 27.1°F-2.7°C 23.0°F-5.0°C 84% 0.7 mph NNE1.1 kmh NNE 2.2 mph3.5 kmh 30.34 in1027.4 mb 0.00 in0.0 mm 0.00 in0.0 mm 0.00 in0.0 mm
08:10 AM 27.0°F-2.8°C 22.8°F-5.1°C 84% Calm Calm 2.2 mph3.5 kmh 30.34 in1027.4 mb 0.00 in0.0 mm 0.00 in0.0 mm 0.00 in0.0 mm
08:15 AM 27.0°F-2.8°C 22.8°F-5.1°C 84% 0.7 mph NE1.1 kmh NE 2.2 mph3.5 kmh 30.34 in1027.4 mb 0.00 in0.0 mm 0.00 in0.0 mm 0.00 in0.0 mm
08:20 AM 26.8°F-2.9°C 22.6°F-5.2°C 84% 1.6 mph NE2.6 kmh NE 2.2 mph3.5 kmh 30.34 in1027.4 mb 0.00 in0.0 mm 0.00 in0.0 mm 0.00 in0.0 mm
08:25 AM 26.6°F-3.0°C 22.4°F-5.3°C 84% 1.6 mph NE2.6 kmh NE 2.2 mph3.5 kmh 30.34 in1027.4 mb 0.00 in0.0 mm 0.00 in0.0 mm 0.00 in0.0 mm
08:30 AM 26.8°F-2.9°C 22.6°F-5.2°C 84% 1.6 mph NE2.6 kmh NE 3.1 mph5.0 kmh 30.34 in1027.4 mb 0.00 in0.0 mm 0.00 in0.0 mm 0.00 in0.0 mm
08:35 AM 27.0°F-2.8°C 22.8°F-5.1°C 84% 0.7 mph NE1.1 kmh NE 3.1 mph5.0 kmh 30.34 in1027.4 mb 0.00 in0.0 mm 0.00 in0.0 mm 0.00 in0.0 mm
08:40 AM 27.1°F-2.7°C 23.0°F-5.0°C 84% 0.7 mph NE1.1 kmh NE 2.2 mph3.5 kmh 30.34 in1027.4 mb 0.00 in0.0 mm 0.00 in0.0 mm 0.00 in0.0 mm
08:45 AM 27.1°F-2.7°C 23.0°F-5.0°C 84% Calm Calm 2.2 mph3.5 kmh 30.34 in1027.4 mb 0.00 in0.0 mm 0.00 in0.0 mm 0.00 in0.0 mm
08:50 AM 27.3°F-2.6°C 23.4°F-4.8°C 85% 0.7 mph NE1.1 kmh NE 2.2 mph3.5 kmh 30.34 in1027.4 mb 0.00 in0.0 mm 0.00 in0.0 mm 0.00 in0.0 mm
08:55 AM 27.3°F-2.6°C 23.4°F-4.8°C 85% 0.7 mph ENE1.1 kmh ENE 2.2 mph3.5 kmh 30.34 in1027.4 mb 0.00 in0.0 mm 0.00 in0.0 mm 0.00 in0.0 mm
09:00 AM 27.5°F-2.5°C 23.6°F-4.7°C 85% 0.7 mph E1.1 kmh E 2.2 mph3.5 kmh 30.34 in1027.4 mb 0.00 in0.0 mm 0.00 in0.0 mm 0.00 in0.0 mm
09:05 AM 27.5°F-2.5°C 23.6°F-4.7°C 85% 0.7 mph E1.1 kmh E 1.6 mph2.6 kmh 30.34 in1027.4 mb 0.00 in0.0 mm 0.00 in0.0 mm 0.00 in0.0 mm
09:10 AM 27.7°F-2.4°C 23.8°F-4.6°C 85% Calm Calm 1.6 mph2.6 kmh 30.34 in1027.4 mb 0.00 in0.0 mm 0.00 in0.0 mm 0.00 in0.0 mm
09:15 AM 28.0°F-2.2°C 24.1°F-4.4°C 85% Calm Calm 1.6 mph2.6 kmh 30.34 in1027.4 mb 0.00 in0.0 mm 0.00 in0.0 mm 0.00 in0.0 mm
09:20 AM 28.8°F-1.8°C 25.9°F-3.4°C 89% Calm Calm 0.7 mph1.1 kmh 30.35 in1027.8 mb 0.00 in0.0 mm 0.00 in0.0 mm 0.00 in0.0 mm
09:25 AM 29.7°F-1.3°C 27.1°F-2.7°C 90% Calm Calm -- 30.35 in1027.8 mb 0.00 in0.0 mm 0.00 in0.0 mm 0.00 in0.0 mm
09:30 AM 30.6°F-0.8°C 27.7°F-2.4°C 89% Calm Calm 1.6 mph2.6 kmh 30.34 in1027.4 mb 0.00 in0.0 mm 0.00 in0.0 mm 0.00 in0.0 mm
09:35 AM 31.6°F-0.2°C 28.8°F-1.8°C 89% Calm Calm 1.6 mph2.6 kmh 30.34 in1027.4 mb 0.00 in0.0 mm 0.00 in0.0 mm 0.00 in0.0 mm
09:40 AM 32.7°F0.4°C 29.8°F-1.2°C 89% Calm Calm 0.7 mph1.1 kmh 30.34 in1027.4 mb 0.00 in0.0 mm 0.00 in0.0 mm 0.00 in0.0 mm
09:45 AM 33.6°F0.9°C 30.5°F-0.8°C 88% Calm Calm -- 30.34 in1027.4 mb 0.00 in0.0 mm 0.00 in0.0 mm 0.00 in0.0 mm
09:50 AM 34.2°F1.2°C 30.4°F-0.9°C 86% Calm Calm -- 30.34 in1027.4 mb 0.00 in0.0 mm 0.00 in0.0 mm 0.00 in0.0 mm
09:55 AM 35.1°F1.7°C 31.0°F-0.6°C 85% Calm Calm -- 30.34 in1027.4 mb 0.00 in0.0 mm 0.00 in0.0 mm 0.00 in0.0 mm
10:00 AM 35.8°F2.1°C 31.4°F-0.3°C 84% Calm Calm 0.7 mph1.1 kmh 30.34 in1027.4 mb 0.00 in0.0 mm 0.00 in0.0 mm 0.00 in0.0 mm
10:05 AM 36.7°F2.6°C 31.7°F-0.2°C 82% Calm Calm 1.6 mph2.6 kmh 30.34 in1027.4 mb 0.00 in0.0 mm 0.00 in0.0 mm 0.00 in0.0 mm
10:10 AM 37.0°F2.8°C 31.8°F-0.1°C 81% Calm Calm 1.6 mph2.6 kmh 30.34 in1027.4 mb 0.00 in0.0 mm 0.00 in0.0 mm 0.00 in0.0 mm
10:15 AM 37.4°F3.0°C 33.0°F0.6°C 84% Calm Calm 1.6 mph2.6 kmh 30.34 in1027.4 mb 0.00 in0.0 mm 0.00 in0.0 mm 0.00 in0.0 mm
10:20 AM 37.8°F3.2°C 32.8°F0.4°C 82% 0.7 mph NW1.1 kmh NW 2.2 mph3.5 kmh 30.33 in1027.1 mb 0.00 in0.0 mm 0.00 in0.0 mm 0.00 in0.0 mm
10:25 AM 38.1°F3.4°C 32.8°F0.4°C 81% 0.7 mph NNW1.1 kmh NNW 2.2 mph3.5 kmh 30.34 in1027.4 mb 0.00 in0.0 mm 0.00 in0.0 mm 0.00 in0.0 mm
10:30 AM 38.7°F3.7°C 33.3°F0.7°C 81% Calm Calm 2.2 mph3.5 kmh 30.34 in1027.4 mb 0.00 in0.0 mm 0.00 in0.0 mm 0.00 in0.0 mm
10:35 AM 39.6°F4.2°C 33.6°F0.9°C 79% 1.6 mph SSW2.6 kmh SSW 3.1 mph5.0 kmh 30.34 in1027.4 mb 0.00 in0.0 mm 0.00 in0.0 mm 0.00 in0.0 mm
10:40 AM 40.3°F4.6°C 33.7°F0.9°C 77% 0.7 mph SSW1.1 kmh SSW 3.1 mph5.0 kmh 30.34 in1027.4 mb 0.00 in0.0 mm 0.00 in0.0 mm 0.00 in0.0 mm
10:45 AM 40.8°F4.9°C 33.9°F1.1°C 76% 1.6 mph WSW2.6 kmh WSW 3.1 mph5.0 kmh 30.34 in1027.4 mb 0.00 in0.0 mm 0.00 in0.0 mm 0.00 in0.0 mm
10:50 AM 40.8°F4.9°C 33.5°F0.8°C 75% 0.7 mph W1.1 kmh W 3.1 mph5.0 kmh 30.34 in1027.4 mb 0.00 in0.0 mm 0.00 in0.0 mm 0.00 in0.0 mm
10:55 AM 41.4°F5.2°C 33.7°F0.9°C 74% 1.6 mph W2.6 kmh W 3.8 mph6.1 kmh 30.34 in1027.4 mb 0.00 in0.0 mm 0.00 in0.0 mm 0.00 in0.0 mm
11:00 AM 41.7°F5.4°C 33.7°F0.9°C 73% 0.7 mph WSW1.1 kmh WSW 3.8 mph6.1 kmh 30.33 in1027.1 mb 0.00 in0.0 mm 0.00 in0.0 mm 0.00 in0.0 mm
11:05 AM 42.1°F5.6°C 34.1°F1.2°C 73% 1.6 mph W2.6 kmh W 3.1 mph5.0 kmh 30.34 in1027.4 mb 0.00 in0.0 mm 0.00 in0.0 mm 0.00 in0.0 mm
11:10 AM 42.3°F5.7°C 33.5°F0.8°C 71% 1.6 mph W2.6 kmh W 3.1 mph5.0 kmh 30.33 in1027.1 mb 0.00 in0.0 mm 0.00 in0.0 mm 0.00 in0.0 mm
11:15 AM 42.3°F5.7°C 33.5°F0.8°C 71% 1.6 mph W2.6 kmh W 3.1 mph5.0 kmh 30.34 in1027.4 mb 0.00 in0.0 mm 0.00 in0.0 mm 0.00 in0.0 mm
11:20 AM 43.0°F6.1°C 33.9°F1.1°C 70% 0.7 mph SW1.1 kmh SW 2.2 mph3.5 kmh 30.33 in1027.1 mb 0.00 in0.0 mm 0.00 in0.0 mm 0.00 in0.0 mm
11:25 AM 43.5°F6.4°C 34.4°F1.3°C 70% 0.7 mph WSW1.1 kmh WSW 3.1 mph5.0 kmh 30.33 in1027.1 mb 0.00 in0.0 mm 0.00 in0.0 mm 0.00 in0.0 mm
11:30 AM 44.2°F6.8°C 34.4°F1.3°C 68% 0.7 mph WSW1.1 kmh WSW 3.8 mph6.1 kmh 30.33 in1027.1 mb 0.00 in0.0 mm 0.00 in0.0 mm 0.00 in0.0 mm
11:35 AM 44.4°F6.9°C 34.2°F1.2°C 67% Calm Calm 3.8 mph6.1 kmh 30.33 in1027.1 mb 0.00 in0.0 mm 0.00 in0.0 mm 0.00 in0.0 mm
11:40 AM 44.8°F7.1°C 34.1°F1.2°C 66% 1.6 mph WNW2.6 kmh WNW 3.8 mph6.1 kmh 30.33 in1027.1 mb 0.00 in0.0 mm 0.00 in0.0 mm 0.00 in0.0 mm
11:45 AM 45.0°F7.2°C 34.3°F1.3°C 66% 1.6 mph W2.6 kmh W 3.8 mph6.1 kmh 30.33 in1027.1 mb 0.00 in0.0 mm 0.00 in0.0 mm 0.00 in0.0 mm
11:50 AM 45.3°F7.4°C 34.3°F1.3°C 65% 2.2 mph W3.5 kmh W 3.1 mph5.0 kmh 30.33 in1027.1 mb 0.00 in0.0 mm 0.00 in0.0 mm 0.00 in0.0 mm
11:55 AM 45.3°F7.4°C 34.3°F1.3°C 65% 2.2 mph W3.5 kmh W 3.8 mph6.1 kmh 30.33 in1027.1 mb 0.00 in0.0 mm 0.00 in0.0 mm 0.00 in0.0 mm
12:00 PM 45.5°F7.5°C 34.4°F1.3°C 65% 1.6 mph W2.6 kmh W 3.8 mph6.1 kmh 30.33 in1027.1 mb 0.00 in0.0 mm 0.00 in0.0 mm 0.00 in0.0 mm
12:05 PM 45.9°F7.7°C 35.2°F1.8°C 66% 1.6 mph W2.6 kmh W 3.8 mph6.1 kmh 30.32 in1026.8 mb 0.00 in0.0 mm 0.00 in0.0 mm 0.00 in0.0 mm
12:10 PM 46.6°F8.1°C 35.8°F2.1°C 66% 1.6 mph W2.6 kmh W 3.1 mph5.0 kmh 30.32 in1026.8 mb 0.00 in0.0 mm 0.00 in0.0 mm 0.00 in0.0 mm
12:15 PM 47.5°F8.6°C 36.3°F2.4°C 65% Calm Calm 3.1 mph5.0 kmh 30.32 in1026.8 mb 0.00 in0.0 mm 0.00 in0.0 mm 0.00 in0.0 mm
12:20 PM 48.4°F9.1°C 36.0°F2.2°C 62% 1.6 mph WNW2.6 kmh WNW 3.1 mph5.0 kmh 30.32 in1026.8 mb 0.00 in0.0 mm 0.00 in0.0 mm 0.00 in0.0 mm
12:25 PM 49.3°F9.6°C 36.4°F2.4°C 61% 0.7 mph S1.1 kmh S 2.2 mph3.5 kmh 30.32 in1026.8 mb 0.00 in0.0 mm 0.00 in0.0 mm 0.00 in0.0 mm
12:30 PM 50.4°F10.2°C 36.2°F2.3°C 58% 1.6 mph SE2.6 kmh SE 3.1 mph5.0 kmh 30.32 in1026.8 mb 0.00 in0.0 mm 0.00 in0.0 mm 0.00 in0.0 mm
12:35 PM 51.1°F10.6°C 36.4°F2.4°C 57% 0.7 mph SE1.1 kmh SE 3.8 mph6.1 kmh 30.32 in1026.8 mb 0.00 in0.0 mm 0.00 in0.0 mm 0.00 in0.0 mm
12:40 PM 51.8°F11.0°C 36.2°F2.3°C 55% 1.6 mph WSW2.6 kmh WSW 3.8 mph6.1 kmh 30.31 in1026.4 mb 0.00 in0.0 mm 0.00 in0.0 mm 0.00 in0.0 mm
12:45 PM 52.2°F11.2°C 36.0°F2.2°C 54% 1.6 mph WNW2.6 kmh WNW 3.1 mph5.0 kmh 30.31 in1026.4 mb 0.00 in0.0 mm 0.00 in0.0 mm 0.00 in0.0 mm
12:50 PM 52.7°F11.5°C 36.5°F2.5°C 54% 1.6 mph NW2.6 kmh NW 3.1 mph5.0 kmh 30.31 in1026.4 mb 0.00 in0.0 mm 0.00 in0.0 mm 0.00 in0.0 mm
12:55 PM 53.1°F11.7°C 36.9°F2.7°C 54% Calm Calm 3.1 mph5.0 kmh 30.31 in1026.4 mb 0.00 in0.0 mm 0.00 in0.0 mm 0.00 in0.0 mm
01:00 PM 53.4°F11.9°C 37.2°F2.9°C 54% 2.2 mph W3.5 kmh W 3.8 mph6.1 kmh 30.30 in1026.1 mb 0.00 in0.0 mm 0.00 in0.0 mm 0.00 in0.0 mm
01:05 PM 54.0°F12.2°C 36.3°F2.4°C 51% 0.7 mph WSW1.1 kmh WSW 3.8 mph6.1 kmh 30.30 in1026.1 mb 0.00 in0.0 mm 0.00 in0.0 mm 0.00 in0.0 mm
01:10 PM 54.3°F12.4°C 36.1°F2.3°C 50% 1.6 mph WSW2.6 kmh WSW 3.8 mph6.1 kmh 30.30 in1026.1 mb 0.00 in0.0 mm 0.00 in0.0 mm 0.00 in0.0 mm
01:15 PM 54.9°F12.7°C 36.6°F2.6°C 50% 0.7 mph WSW1.1 kmh WSW 3.8 mph6.1 kmh 30.29 in1025.7 mb 0.00 in0.0 mm 0.00 in0.0 mm 0.00 in0.0 mm
01:20 PM 55.2°F12.9°C 36.4°F2.4°C 49% 1.6 mph WSW2.6 kmh WSW 4.5 mph7.2 kmh 30.29 in1025.7 mb 0.00 in0.0 mm 0.00 in0.0 mm 0.00 in0.0 mm
01:25 PM 55.6°F13.1°C 36.2°F2.3°C 48% 1.6 mph SSW2.6 kmh SSW 4.5 mph7.2 kmh 30.29 in1025.7 mb 0.00 in0.0 mm 0.00 in0.0 mm 0.00 in0.0 mm
01:30 PM 56.3°F13.5°C 36.9°F2.7°C 48% 1.6 mph SW2.6 kmh SW 3.8 mph6.1 kmh 30.28 in1025.4 mb 0.00 in0.0 mm 0.00 in0.0 mm 0.00 in0.0 mm
01:35 PM 56.5°F13.6°C 37.0°F2.8°C 48% 2.2 mph WNW3.5 kmh WNW 4.5 mph7.2 kmh 30.28 in1025.4 mb 0.00 in0.0 mm 0.00 in0.0 mm 0.00 in0.0 mm
01:40 PM 56.7°F13.7°C 37.2°F2.9°C 48% 2.2 mph WNW3.5 kmh WNW 4.5 mph7.2 kmh 30.28 in1025.4 mb 0.00 in0.0 mm 0.00 in0.0 mm 0.00 in0.0 mm
01:45 PM 57.2°F14.0°C 37.2°F2.9°C 47% 2.2 mph W3.5 kmh W 3.8 mph6.1 kmh 30.27 in1025.1 mb 0.00 in0.0 mm 0.00 in0.0 mm 0.00 in0.0 mm
01:50 PM 57.4°F14.1°C 36.8°F2.7°C 46% 3.1 mph WSW5.0 kmh WSW 4.5 mph7.2 kmh 30.27 in1025.1 mb 0.00 in0.0 mm 0.00 in0.0 mm 0.00 in0.0 mm
01:55 PM 57.7°F14.3°C 37.1°F2.8°C 46% Calm Calm 4.5 mph7.2 kmh 30.27 in1025.1 mb 0.00 in0.0 mm 0.00 in0.0 mm 0.00 in0.0 mm
02:00 PM 58.3°F14.6°C 37.6°F3.1°C 46% 2.2 mph W3.5 kmh W 3.8 mph6.1 kmh 30.27 in1025.1 mb 0.00 in0.0 mm 0.00 in0.0 mm 0.00 in0.0 mm
02:05 PM 58.5°F14.7°C 37.8°F3.2°C 46% 1.6 mph WNW2.6 kmh WNW 3.8 mph6.1 kmh 30.27 in1025.1 mb 0.00 in0.0 mm 0.00 in0.0 mm 0.00 in0.0 mm
02:10 PM 58.8°F14.9°C 37.5°F3.1°C 45% 1.6 mph NW2.6 kmh NW 3.1 mph5.0 kmh 30.26 in1024.7 mb 0.00 in0.0 mm 0.00 in0.0 mm 0.00 in0.0 mm
02:15 PM 59.4°F15.2°C 37.5°F3.1°C 44% 0.7 mph WNW1.1 kmh WNW 3.1 mph5.0 kmh 30.26 in1024.7 mb 0.00 in0.0 mm 0.00 in0.0 mm 0.00 in0.0 mm
02:20 PM 59.7°F15.4°C 37.8°F3.2°C 44% 1.6 mph WNW2.6 kmh WNW 4.5 mph7.2 kmh 30.26 in1024.7 mb 0.00 in0.0 mm 0.00 in0.0 mm 0.00 in0.0 mm
02:25 PM 60.1°F15.6°C 37.5°F3.1°C 43% 0.7 mph WSW1.1 kmh WSW 4.5 mph7.2 kmh 30.25 in1024.4 mb 0.00 in0.0 mm 0.00 in0.0 mm 0.00 in0.0 mm
02:30 PM 60.6°F15.9°C 38.0°F3.3°C 43% 0.7 mph SW1.1 kmh SW 4.5 mph7.2 kmh 30.25 in1024.4 mb 0.00 in0.0 mm 0.00 in0.0 mm 0.00 in0.0 mm
02:35 PM 61.3°F16.3°C 38.1°F3.4°C 42% 1.6 mph SW2.6 kmh SW 3.8 mph6.1 kmh 30.25 in1024.4 mb 0.00 in0.0 mm 0.00 in0.0 mm 0.00 in0.0 mm
02:40 PM 61.5°F16.4°C 37.6°F3.1°C 41% 1.6 mph SW2.6 kmh SW 4.5 mph7.2 kmh 30.25 in1024.4 mb 0.00 in0.0 mm 0.00 in0.0 mm 0.00 in0.0 mm
02:45 PM 61.9°F16.6°C 37.9°F3.3°C 41% 1.6 mph SW2.6 kmh SW 4.5 mph7.2 kmh 30.25 in1024.4 mb 0.00 in0.0 mm 0.00 in0.0 mm 0.00 in0.0 mm
02:50 PM 62.4°F16.9°C 37.8°F3.2°C 40% 2.2 mph SW3.5 kmh SW 3.8 mph6.1 kmh 30.24 in1024.0 mb 0.00 in0.0 mm 0.00 in0.0 mm 0.00 in0.0 mm
02:55 PM 62.6°F17.0°C 36.7°F2.6°C 38% 3.1 mph SSW5.0 kmh SSW 4.5 mph7.2 kmh 30.24 in1024.0 mb 0.00 in0.0 mm 0.00 in0.0 mm 0.00 in0.0 mm
03:00 PM 63.0°F17.2°C 36.3°F2.4°C 37% 1.6 mph SSW2.6 kmh SSW 4.5 mph7.2 kmh 30.24 in1024.0 mb 0.00 in0.0 mm 0.00 in0.0 mm 0.00 in0.0 mm
03:05 PM 63.3°F17.4°C 36.6°F2.6°C 37% 2.2 mph WSW3.5 kmh WSW 3.8 mph6.1 kmh 30.24 in1024.0 mb 0.00 in0.0 mm 0.00 in0.0 mm 0.00 in0.0 mm
03:10 PM 63.5°F17.5°C 36.1°F2.3°C 36% Calm Calm 3.8 mph6.1 kmh 30.23 in1023.7 mb 0.00 in0.0 mm 0.00 in0.0 mm 0.00 in0.0 mm
03:15 PM 64.0°F17.8°C 35.9°F2.2°C 35% Calm Calm 2.2 mph3.5 kmh 30.23 in1023.7 mb 0.00 in0.0 mm 0.00 in0.0 mm 0.00 in0.0 mm
03:20 PM 64.4°F18.0°C 36.9°F2.7°C 36% 1.6 mph SSW2.6 kmh SSW 3.1 mph5.0 kmh 30.23 in1023.7 mb 0.00 in0.0 mm 0.00 in0.0 mm 0.00 in0.0 mm
03:25 PM 64.8°F18.2°C 37.2°F2.9°C 36% 1.6 mph SW2.6 kmh SW 3.1 mph5.0 kmh 30.22 in1023.4 mb 0.00 in0.0 mm 0.00 in0.0 mm 0.00 in0.0 mm
03:30 PM 65.1°F18.4°C 37.5°F3.1°C 36% 0.7 mph WSW1.1 kmh WSW 3.1 mph5.0 kmh 30.22 in1023.4 mb 0.00 in0.0 mm 0.00 in0.0 mm 0.00 in0.0 mm
03:35 PM 65.3°F18.5°C 37.7°F3.2°C 36% 1.6 mph SW2.6 kmh SW 4.5 mph7.2 kmh 30.22 in1023.4 mb 0.00 in0.0 mm 0.00 in0.0 mm 0.00 in0.0 mm
03:40 PM 65.7°F18.7°C 38.0°F3.3°C 36% 1.6 mph SW2.6 kmh SW 4.5 mph7.2 kmh 30.22 in1023.4 mb 0.00 in0.0 mm 0.00 in0.0 mm 0.00 in0.0 mm
03:45 PM 65.8°F18.8°C 38.2°F3.4°C 36% 1.6 mph SW2.6 kmh SW 4.5 mph7.2 kmh 30.22 in1023.4 mb 0.00 in0.0 mm 0.00 in0.0 mm 0.00 in0.0 mm
03:50 PM 66.2°F19.0°C 37.0°F2.8°C 34% Calm Calm 3.8 mph6.1 kmh 30.22 in1023.4 mb 0.00 in0.0 mm 0.00 in0.0 mm 0.00 in0.0 mm
03:55 PM 66.4°F19.1°C 37.2°F2.9°C 34% 0.7 mph NW1.1 kmh NW 3.1 mph5.0 kmh 30.22 in1023.4 mb 0.00 in0.0 mm 0.00 in0.0 mm 0.00 in0.0 mm
04:00 PM 66.7°F19.3°C 37.5°F3.1°C 34% 2.2 mph ENE3.5 kmh ENE 3.8 mph6.1 kmh 30.22 in1023.4 mb 0.00 in0.0 mm 0.00 in0.0 mm 0.00 in0.0 mm
04:05 PM 66.7°F19.3°C 36.7°F2.6°C 33% 3.1 mph SE5.0 kmh SE 5.4 mph8.7 kmh 30.21 in1023.0 mb 0.00 in0.0 mm 0.00 in0.0 mm 0.00 in0.0 mm
04:10 PM 66.7°F19.3°C 36.0°F2.2°C 32% 3.8 mph SE6.1 kmh SE 5.4 mph8.7 kmh 30.22 in1023.4 mb 0.00 in0.0 mm 0.00 in0.0 mm 0.00 in0.0 mm
04:15 PM 66.9°F19.4°C 36.9°F2.7°C 33% 2.2 mph SE3.5 kmh SE 4.5 mph7.2 kmh 30.22 in1023.4 mb 0.00 in0.0 mm 0.00 in0.0 mm 0.00 in0.0 mm
04:20 PM 67.1°F19.5°C 37.1°F2.8°C 33% 3.1 mph SE5.0 kmh SE 5.4 mph8.7 kmh 30.22 in1023.4 mb 0.00 in0.0 mm 0.00 in0.0 mm 0.00 in0.0 mm
04:25 PM 67.3°F19.6°C 36.4°F2.4°C 32% 2.2 mph SE3.5 kmh SE 5.4 mph8.7 kmh 30.22 in1023.4 mb 0.00 in0.0 mm 0.00 in0.0 mm 0.00 in0.0 mm
04:30 PM 67.3°F19.6°C 36.4°F2.4°C 32% 1.6 mph SE2.6 kmh SE 5.4 mph8.7 kmh 30.21 in1023.0 mb 0.00 in0.0 mm 0.00 in0.0 mm 0.00 in0.0 mm
04:35 PM 67.1°F19.5°C 36.3°F2.4°C 32% 0.7 mph SE1.1 kmh SE 4.5 mph7.2 kmh 30.21 in1023.0 mb 0.00 in0.0 mm 0.00 in0.0 mm 0.00 in0.0 mm
04:40 PM 66.9°F19.4°C 36.1°F2.3°C 32% 1.6 mph E2.6 kmh E 5.4 mph8.7 kmh 30.21 in1023.0 mb 0.00 in0.0 mm 0.00 in0.0 mm 0.00 in0.0 mm
04:45 PM 66.7°F19.3°C 34.3°F1.3°C 30% 2.2 mph E3.5 kmh E 5.4 mph8.7 kmh 30.22 in1023.4 mb 0.00 in0.0 mm 0.00 in0.0 mm 0.00 in0.0 mm
04:50 PM 66.6°F19.2°C 34.2°F1.2°C 30% 3.8 mph E6.1 kmh E 6.9 mph11.1 kmh 30.21 in1023.0 mb 0.00 in0.0 mm 0.00 in0.0 mm 0.00 in0.0 mm
04:55 PM 66.4°F19.1°C 34.0°F1.1°C 30% 2.2 mph E3.5 kmh E 6.9 mph11.1 kmh 30.21 in1023.0 mb 0.00 in0.0 mm 0.00 in0.0 mm 0.00 in0.0 mm
05:00 PM 66.6°F19.2°C 35.0°F1.7°C 31% 2.2 mph E3.5 kmh E 5.4 mph8.7 kmh 30.21 in1023.0 mb 0.00 in0.0 mm 0.00 in0.0 mm 0.00 in0.0 mm
05:05 PM 66.4°F19.1°C 35.7°F2.1°C 32% 4.5 mph E7.2 kmh E 8.3 mph13.4 kmh 30.21 in1023.0 mb 0.00 in0.0 mm 0.00 in0.0 mm 0.00 in0.0 mm
05:10 PM 66.2°F19.0°C 35.5°F1.9°C 32% 2.2 mph ENE3.5 kmh ENE 8.3 mph13.4 kmh 30.21 in1023.0 mb 0.00 in0.0 mm 0.00 in0.0 mm 0.00 in0.0 mm
05:15 PM 66.2°F19.0°C 35.5°F1.9°C 32% 3.8 mph NE6.1 kmh NE 7.6 mph12.2 kmh 30.21 in1023.0 mb 0.00 in0.0 mm 0.00 in0.0 mm 0.00 in0.0 mm
05:20 PM 66.0°F18.9°C 36.9°F2.7°C 34% 3.8 mph NE6.1 kmh NE 7.6 mph12.2 kmh 30.21 in1023.0 mb 0.00 in0.0 mm 0.00 in0.0 mm 0.00 in0.0 mm
05:25 PM 65.8°F18.8°C 36.7°F2.6°C 34% 4.5 mph E7.2 kmh E 7.6 mph12.2 kmh 30.21 in1023.0 mb 0.00 in0.0 mm 0.00 in0.0 mm 0.00 in0.0 mm
05:30 PM 65.8°F18.8°C 36.7°F2.6°C 34% 3.1 mph NE5.0 kmh NE 9.2 mph14.8 kmh 30.21 in1023.0 mb 0.00 in0.0 mm 0.00 in0.0 mm 0.00 in0.0 mm
05:35 PM 65.8°F18.8°C 36.7°F2.6°C 34% 6.0 mph NE9.7 kmh NE 10.7 mph17.2 kmh 30.21 in1023.0 mb 0.00 in0.0 mm 0.00 in0.0 mm 0.00 in0.0 mm
05:40 PM 65.7°F18.7°C 36.6°F2.6°C 34% 3.8 mph E6.1 kmh E 10.7 mph17.2 kmh 30.21 in1023.0 mb 0.00 in0.0 mm 0.00 in0.0 mm 0.00 in0.0 mm
05:45 PM 65.7°F18.7°C 36.6°F2.6°C 34% 4.5 mph E7.2 kmh E 10.7 mph17.2 kmh 30.20 in1022.7 mb 0.00 in0.0 mm 0.00 in0.0 mm 0.00 in0.0 mm
05:50 PM 65.5°F18.6°C 36.4°F2.4°C 34% 2.2 mph E3.5 kmh E 7.6 mph12.2 kmh 30.21 in1023.0 mb 0.00 in0.0 mm 0.00 in0.0 mm 0.00 in0.0 mm
05:55 PM 65.3°F18.5°C 35.5°F1.9°C 33% 3.8 mph ENE6.1 kmh ENE 8.3 mph13.4 kmh 30.20 in1022.7 mb 0.00 in0.0 mm 0.00 in0.0 mm 0.00 in0.0 mm
06:00 PM 64.8°F18.2°C 36.5°F2.5°C 35% 3.1 mph E5.0 kmh E 9.2 mph14.8 kmh 30.20 in1022.7 mb 0.00 in0.0 mm 0.00 in0.0 mm 0.00 in0.0 mm
06:05 PM 64.4°F18.0°C 36.2°F2.3°C 35% 5.4 mph E8.7 kmh E 9.2 mph14.8 kmh 30.20 in1022.7 mb 0.00 in0.0 mm 0.00 in0.0 mm 0.00 in0.0 mm
06:10 PM 64.0°F17.8°C 34.4°F1.3°C 33% 3.1 mph E5.0 kmh E 9.2 mph14.8 kmh 30.21 in1023.0 mb 0.00 in0.0 mm 0.00 in0.0 mm 0.00 in0.0 mm
06:15 PM 63.7°F17.6°C 34.1°F1.2°C 33% 5.4 mph E8.7 kmh E 9.2 mph14.8 kmh 30.21 in1023.0 mb 0.00 in0.0 mm 0.00 in0.0 mm 0.00 in0.0 mm
06:20 PM 63.3°F17.4°C 33.7°F0.9°C 33% 5.4 mph E8.7 kmh E 9.8 mph15.8 kmh 30.21 in1023.0 mb 0.00 in0.0 mm 0.00 in0.0 mm 0.00 in0.0 mm
06:25 PM 63.0°F17.2°C 34.2°F1.2°C 34% 5.4 mph E8.7 kmh E 9.8 mph15.8 kmh 30.21 in1023.0 mb 0.00 in0.0 mm 0.00 in0.0 mm 0.00 in0.0 mm
06:30 PM 62.6°F17.0°C 33.9°F1.1°C 34% 5.4 mph E8.7 kmh E 9.8 mph15.8 kmh 30.21 in1023.0 mb 0.00 in0.0 mm 0.00 in0.0 mm 0.00 in0.0 mm
06:35 PM 62.2°F16.8°C 34.3°F1.3°C 35% 3.1 mph E5.0 kmh E 9.8 mph15.8 kmh 30.21 in1023.0 mb 0.00 in0.0 mm 0.00 in0.0 mm 0.00 in0.0 mm
06:40 PM 62.1°F16.7°C 34.8°F1.6°C 36% 6.0 mph E9.7 kmh E 9.8 mph15.8 kmh 30.21 in1023.0 mb 0.00 in0.0 mm 0.00 in0.0 mm 0.00 in0.0 mm
06:45 PM 61.5°F16.4°C 34.3°F1.3°C 36% 2.2 mph E3.5 kmh E 7.6 mph12.2 kmh 30.21 in1023.0 mb 0.00 in0.0 mm 0.00 in0.0 mm 0.00 in0.0 mm
06:50 PM 61.2°F16.2°C 34.0°F1.1°C 36% 3.8 mph E6.1 kmh E 7.6 mph12.2 kmh 30.21 in1023.0 mb 0.00 in0.0 mm 0.00 in0.0 mm 0.00 in0.0 mm
06:55 PM 60.8°F16.0°C 34.4°F1.3°C 37% 2.2 mph E3.5 kmh E 9.2 mph14.8 kmh 30.21 in1023.0 mb 0.00 in0.0 mm 0.00 in0.0 mm 0.00 in0.0 mm
07:00 PM 60.3°F15.7°C 34.6°F1.4°C 38% 1.6 mph E2.6 kmh E 9.2 mph14.8 kmh 30.22 in1023.4 mb 0.00 in0.0 mm 0.00 in0.0 mm 0.00 in0.0 mm
07:05 PM 59.9°F15.5°C 34.9°F1.6°C 39% 1.6 mph ENE2.6 kmh ENE 5.4 mph8.7 kmh 30.22 in1023.4 mb 0.00 in0.0 mm 0.00 in0.0 mm 0.00 in0.0 mm
07:10 PM 59.4°F15.2°C 35.1°F1.7°C 40% 3.1 mph ENE5.0 kmh ENE 7.6 mph12.2 kmh 30.22 in1023.4 mb 0.00 in0.0 mm 0.00 in0.0 mm 0.00 in0.0 mm
07:15 PM 59.2°F15.1°C 34.9°F1.6°C 40% 4.5 mph E7.2 kmh E 7.6 mph12.2 kmh 30.21 in1023.0 mb 0.00 in0.0 mm 0.00 in0.0 mm 0.00 in0.0 mm
07:20 PM 58.8°F14.9°C 35.8°F2.1°C 42% 5.4 mph E8.7 kmh E 8.3 mph13.4 kmh 30.22 in1023.4 mb 0.00 in0.0 mm 0.00 in0.0 mm 0.00 in0.0 mm
07:25 PM 58.8°F14.9°C 35.2°F1.8°C 41% 5.4 mph E8.7 kmh E 12.1 mph19.5 kmh 30.22 in1023.4 mb 0.00 in0.0 mm 0.00 in0.0 mm 0.00 in0.0 mm
07:30 PM 58.6°F14.8°C 35.6°F2.0°C 42% 5.4 mph E8.7 kmh E 12.1 mph19.5 kmh 30.22 in1023.4 mb 0.00 in0.0 mm 0.00 in0.0 mm 0.00 in0.0 mm
07:35 PM 58.5°F14.7°C 34.9°F1.6°C 41% 8.3 mph ESE13.4 kmh ESE 13.0 mph20.9 kmh 30.22 in1023.4 mb 0.00 in0.0 mm 0.00 in0.0 mm 0.00 in0.0 mm
07:40 PM 58.5°F14.7°C 34.9°F1.6°C 41% 4.5 mph E7.2 kmh E 13.0 mph20.9 kmh 30.22 in1023.4 mb 0.00 in0.0 mm 0.00 in0.0 mm 0.00 in0.0 mm
07:45 PM 58.3°F14.6°C 34.7°F1.5°C 41% 3.8 mph E6.1 kmh E 13.0 mph20.9 kmh 30.23 in1023.7 mb 0.00 in0.0 mm 0.00 in0.0 mm 0.00 in0.0 mm
07:50 PM 57.9°F14.4°C 35.0°F1.7°C 42% 3.8 mph E6.1 kmh E 8.3 mph13.4 kmh 30.23 in1023.7 mb 0.00 in0.0 mm 0.00 in0.0 mm 0.00 in0.0 mm
07:55 PM 57.4°F14.1°C 34.5°F1.4°C 42% 2.2 mph E3.5 kmh E 8.3 mph13.4 kmh 30.23 in1023.7 mb 0.00 in0.0 mm 0.00 in0.0 mm 0.00 in0.0 mm
08:00 PM 57.2°F14.0°C 34.3°F1.3°C 42% 3.8 mph NE6.1 kmh NE 6.0 mph9.7 kmh 30.23 in1023.7 mb 0.00 in0.0 mm 0.00 in0.0 mm 0.00 in0.0 mm
08:05 PM 56.8°F13.8°C 35.2°F1.8°C 44% 1.6 mph NE2.6 kmh NE 6.9 mph11.1 kmh 30.23 in1023.7 mb 0.00 in0.0 mm 0.00 in0.0 mm 0.00 in0.0 mm
08:10 PM 56.5°F13.6°C 34.8°F1.6°C 44% 2.2 mph NE3.5 kmh NE 6.9 mph11.1 kmh 30.23 in1023.7 mb 0.00 in0.0 mm 0.00 in0.0 mm 0.00 in0.0 mm
08:15 PM 56.1°F13.4°C 34.5°F1.4°C 44% 4.5 mph ENE7.2 kmh ENE 6.9 mph11.1 kmh 30.24 in1024.0 mb 0.00 in0.0 mm 0.00 in0.0 mm 0.00 in0.0 mm
08:20 PM 56.1°F13.4°C 34.5°F1.4°C 44% 2.2 mph NE3.5 kmh NE 8.3 mph13.4 kmh 30.23 in1023.7 mb 0.00 in0.0 mm 0.00 in0.0 mm 0.00 in0.0 mm
08:25 PM 56.3°F13.5°C 34.7°F1.5°C 44% 3.1 mph ENE5.0 kmh ENE 8.3 mph13.4 kmh 30.23 in1023.7 mb 0.00 in0.0 mm 0.00 in0.0 mm 0.00 in0.0 mm
08:30 PM 56.1°F13.4°C 34.5°F1.4°C 44% 4.5 mph NE7.2 kmh NE 7.6 mph12.2 kmh 30.24 in1024.0 mb 0.00 in0.0 mm 0.00 in0.0 mm 0.00 in0.0 mm
08:35 PM 55.8°F13.2°C 34.2°F1.2°C 44% 6.0 mph NE9.7 kmh NE 10.7 mph17.2 kmh 30.24 in1024.0 mb 0.00 in0.0 mm 0.00 in0.0 mm 0.00 in0.0 mm
08:40 PM 55.6°F13.1°C 34.6°F1.4°C 45% 5.4 mph NNE8.7 kmh NNE 11.4 mph18.3 kmh 30.24 in1024.0 mb 0.00 in0.0 mm 0.00 in0.0 mm 0.00 in0.0 mm
08:45 PM 55.6°F13.1°C 34.0°F1.1°C 44% 3.1 mph NE5.0 kmh NE 11.4 mph18.3 kmh 30.24 in1024.0 mb 0.00 in0.0 mm 0.00 in0.0 mm 0.00 in0.0 mm
08:50 PM 55.4°F13.0°C 34.4°F1.3°C 45% 2.2 mph NE3.5 kmh NE 8.3 mph13.4 kmh 30.24 in1024.0 mb 0.00 in0.0 mm 0.00 in0.0 mm 0.00 in0.0 mm
08:55 PM 55.2°F12.9°C 33.1°F0.6°C 43% 3.1 mph NE5.0 kmh NE 6.0 mph9.7 kmh 30.24 in1024.0 mb 0.00 in0.0 mm 0.00 in0.0 mm 0.00 in0.0 mm
09:00 PM 55.0°F12.8°C 33.0°F0.6°C 43% 3.1 mph NE5.0 kmh NE 6.9 mph11.1 kmh 30.24 in1024.0 mb 0.00 in0.0 mm 0.00 in0.0 mm 0.00 in0.0 mm
09:05 PM 54.9°F12.7°C 33.4°F0.8°C 44% 3.1 mph ENE5.0 kmh ENE 7.6 mph12.2 kmh 30.25 in1024.4 mb 0.00 in0.0 mm 0.00 in0.0 mm 0.00 in0.0 mm
09:10 PM 54.7°F12.6°C 33.2°F0.7°C 44% 2.2 mph E3.5 kmh E 7.6 mph12.2 kmh 30.25 in1024.4 mb 0.00 in0.0 mm 0.00 in0.0 mm 0.00 in0.0 mm
09:15 PM 54.5°F12.5°C 33.0°F0.6°C 44% 2.2 mph E3.5 kmh E 5.4 mph8.7 kmh 30.25 in1024.4 mb 0.00 in0.0 mm 0.00 in0.0 mm 0.00 in0.0 mm
09:20 PM 54.1°F12.3°C 32.7°F0.4°C 44% 1.6 mph ENE2.6 kmh ENE 3.8 mph6.1 kmh 30.25 in1024.4 mb 0.00 in0.0 mm 0.00 in0.0 mm 0.00 in0.0 mm
09:25 PM 53.8°F12.1°C 33.0°F0.6°C 45% 3.1 mph NNE5.0 kmh NNE 4.5 mph7.2 kmh 30.25 in1024.4 mb 0.00 in0.0 mm 0.00 in0.0 mm 0.00 in0.0 mm
09:30 PM 52.9°F11.6°C 33.2°F0.7°C 47% 2.2 mph N3.5 kmh N 7.6 mph12.2 kmh 30.25 in1024.4 mb 0.00 in0.0 mm 0.00 in0.0 mm 0.00 in0.0 mm
09:35 PM 52.3°F11.3°C 32.7°F0.4°C 47% 1.6 mph N2.6 kmh N 7.6 mph12.2 kmh 30.25 in1024.4 mb 0.00 in0.0 mm 0.00 in0.0 mm 0.00 in0.0 mm
09:40 PM 51.8°F11.0°C 32.7°F0.4°C 48% 0.7 mph ENE1.1 kmh ENE 4.5 mph7.2 kmh 30.25 in1024.4 mb 0.00 in0.0 mm 0.00 in0.0 mm 0.00 in0.0 mm
09:45 PM 51.6°F10.9°C 33.1°F0.6°C 49% 3.1 mph ENE5.0 kmh ENE 6.0 mph9.7 kmh 30.25 in1024.4 mb 0.00 in0.0 mm 0.00 in0.0 mm 0.00 in0.0 mm
09:50 PM 51.4°F10.8°C 33.4°F0.8°C 50% 0.7 mph E1.1 kmh E 6.0 mph9.7 kmh 30.25 in1024.4 mb 0.00 in0.0 mm 0.00 in0.0 mm 0.00 in0.0 mm
09:55 PM 51.1°F10.6°C 33.6°F0.9°C 51% 2.2 mph ESE3.5 kmh ESE 4.5 mph7.2 kmh 30.25 in1024.4 mb 0.00 in0.0 mm 0.00 in0.0 mm 0.00 in0.0 mm
10:00 PM 50.5°F10.3°C 33.6°F0.9°C 52% 0.7 mph E1.1 kmh E 4.5 mph7.2 kmh 30.25 in1024.4 mb 0.00 in0.0 mm 0.00 in0.0 mm 0.00 in0.0 mm
10:05 PM 50.4°F10.2°C 33.9°F1.1°C 53% 1.6 mph E2.6 kmh E 3.8 mph6.1 kmh 30.25 in1024.4 mb 0.00 in0.0 mm 0.00 in0.0 mm 0.00 in0.0 mm
10:10 PM 50.2°F10.1°C 33.7°F0.9°C 53% 2.2 mph SE3.5 kmh SE 4.5 mph7.2 kmh 30.25 in1024.4 mb 0.00 in0.0 mm 0.00 in0.0 mm 0.00 in0.0 mm
10:15 PM 50.0°F10.0°C 33.6°F0.9°C 53% 0.7 mph SSE1.1 kmh SSE 4.5 mph7.2 kmh 30.25 in1024.4 mb 0.00 in0.0 mm 0.00 in0.0 mm 0.00 in0.0 mm
10:20 PM 49.6°F9.8°C 34.1°F1.2°C 55% 2.2 mph S3.5 kmh S 3.8 mph6.1 kmh 30.25 in1024.4 mb 0.00 in0.0 mm 0.00 in0.0 mm 0.00 in0.0 mm
10:25 PM 49.3°F9.6°C 34.3°F1.3°C 56% 0.7 mph SE1.1 kmh SE 4.5 mph7.2 kmh 30.26 in1024.7 mb 0.00 in0.0 mm 0.00 in0.0 mm 0.00 in0.0 mm
10:30 PM 48.9°F9.4°C 34.4°F1.3°C 57% 1.6 mph SE2.6 kmh SE 4.5 mph7.2 kmh 30.26 in1024.7 mb 0.00 in0.0 mm 0.00 in0.0 mm 0.00 in0.0 mm
10:35 PM 48.9°F9.4°C 34.8°F1.6°C 58% 1.6 mph SE2.6 kmh SE 3.1 mph5.0 kmh 30.26 in1024.7 mb 0.00 in0.0 mm 0.00 in0.0 mm 0.00 in0.0 mm
10:40 PM 48.4°F9.1°C 34.7°F1.5°C 59% Calm Calm 3.1 mph5.0 kmh 30.26 in1024.7 mb 0.00 in0.0 mm 0.00 in0.0 mm 0.00 in0.0 mm
10:45 PM 47.8°F8.8°C 34.6°F1.4°C 60% Calm Calm 2.2 mph3.5 kmh 30.26 in1024.7 mb 0.00 in0.0 mm 0.00 in0.0 mm 0.00 in0.0 mm
10:50 PM 47.1°F8.4°C 34.4°F1.3°C 61% 0.7 mph E1.1 kmh E 2.2 mph3.5 kmh 30.26 in1024.7 mb 0.00 in0.0 mm 0.00 in0.0 mm 0.00 in0.0 mm
10:55 PM 46.6°F8.1°C 34.3°F1.3°C 62% 0.7 mph E1.1 kmh E 2.2 mph3.5 kmh 30.26 in1024.7 mb 0.00 in0.0 mm 0.00 in0.0 mm 0.00 in0.0 mm
11:00 PM 46.2°F7.9°C 34.3°F1.3°C 63% 3.1 mph ENE5.0 kmh ENE 3.8 mph6.1 kmh 30.26 in1024.7 mb 0.00 in0.0 mm 0.00 in0.0 mm 0.00 in0.0 mm
11:05 PM 45.9°F7.7°C 34.0°F1.1°C 63% 2.2 mph ENE3.5 kmh ENE 3.8 mph6.1 kmh 30.26 in1024.7 mb 0.00 in0.0 mm 0.00 in0.0 mm 0.00 in0.0 mm
11:10 PM 45.5°F7.5°C 34.0°F1.1°C 64% 1.6 mph E2.6 kmh E 3.8 mph6.1 kmh 30.26 in1024.7 mb 0.00 in0.0 mm 0.00 in0.0 mm 0.00 in0.0 mm
11:15 PM 45.3°F7.4°C 33.9°F1.1°C 64% 1.6 mph ESE2.6 kmh ESE 3.1 mph5.0 kmh 30.26 in1024.7 mb 0.00 in0.0 mm 0.00 in0.0 mm 0.00 in0.0 mm
11:20 PM 45.1°F7.3°C 33.7°F0.9°C 64% 1.6 mph E2.6 kmh E 3.1 mph5.0 kmh 30.27 in1025.1 mb 0.00 in0.0 mm 0.00 in0.0 mm 0.00 in0.0 mm
11:25 PM 44.4°F6.9°C 33.4°F0.8°C 65% 0.7 mph N1.1 kmh N 3.8 mph6.1 kmh 30.27 in1025.1 mb 0.00 in0.0 mm 0.00 in0.0 mm 0.00 in0.0 mm
11:30 PM 44.1°F6.7°C 33.1°F0.6°C 65% 1.6 mph NW2.6 kmh NW 3.8 mph6.1 kmh 30.27 in1025.1 mb 0.00 in0.0 mm 0.00 in0.0 mm 0.00 in0.0 mm
11:35 PM 43.9°F6.6°C 33.3°F0.7°C 66% 1.6 mph W2.6 kmh W 3.1 mph5.0 kmh 30.27 in1025.1 mb 0.00 in0.0 mm 0.00 in0.0 mm 0.00 in0.0 mm
11:40 PM 43.7°F6.5°C 32.7°F0.4°C 65% 3.1 mph W5.0 kmh W 3.8 mph6.1 kmh 30.27 in1025.1 mb 0.00 in0.0 mm 0.00 in0.0 mm 0.00 in0.0 mm
11:45 PM 43.5°F6.4°C 32.9°F0.5°C 66% 0.7 mph WNW1.1 kmh WNW 4.5 mph7.2 kmh 30.28 in1025.4 mb 0.00 in0.0 mm 0.00 in0.0 mm 0.00 in0.0 mm
11:50 PM 43.3°F6.3°C 32.8°F0.4°C 66% 0.7 mph WNW1.1 kmh WNW 4.5 mph7.2 kmh 30.27 in1025.1 mb 0.00 in0.0 mm 0.00 in0.0 mm 0.00 in0.0 mm
11:55 PM 43.2°F6.2°C 32.6°F0.3°C 66% Calm Calm 2.2 mph3.5 kmh 30.27 in1025.1 mb 0.00 in0.0 mm 0.00 in0.0 mm 0.00 in0.0 mm